createdAt,value
2023-08-12T00:03:38.172Z,5.90
2023-08-12T00:08:41.080Z,5.60
2023-08-12T00:13:43.784Z,6.00
2023-08-12T00:18:46.510Z,6.40
2023-08-12T00:23:50.906Z,6.60
2023-08-12T00:28:53.710Z,6.30
2023-08-12T00:33:56.686Z,6.50
2023-08-12T00:38:59.368Z,7.30
2023-08-12T00:44:02.183Z,6.60
2023-08-12T00:49:05.866Z,7.40
2023-08-12T00:54:12.359Z,6.70
2023-08-12T00:59:18.242Z,7.20
2023-08-12T01:04:21.738Z,6.70
2023-08-12T01:09:24.584Z,6.10
2023-08-12T01:15:12.423Z,6.50
2023-08-12T01:20:16.701Z,6.30
2023-08-12T01:25:19.557Z,6.20
2023-08-12T01:30:24.151Z,6.00
2023-08-12T01:35:55.015Z,6.10
2023-08-12T01:40:58.914Z,6.00
2023-08-12T01:46:02.609Z,6.40
2023-08-12T01:51:05.937Z,6.80
2023-08-12T01:56:08.620Z,6.30
2023-08-12T02:01:12.736Z,6.10
2023-08-12T02:06:15.717Z,5.80
2023-08-12T02:11:18.873Z,5.90
2023-08-12T02:16:21.579Z,6.00
2023-08-12T02:21:24.470Z,6.20
2023-08-12T02:26:27.445Z,6.10
2023-08-12T02:31:30.341Z,6.20
2023-08-12T02:36:34.502Z,5.60
2023-08-12T02:41:37.312Z,6.70
2023-08-12T02:46:40.025Z,6.50
2023-08-12T02:51:42.790Z,6.50
2023-08-12T02:56:45.557Z,6.50
2023-08-12T03:01:48.358Z,5.90
2023-08-12T03:06:51.124Z,6.70
2023-08-12T03:11:54.040Z,6.00
2023-08-12T03:16:57.255Z,6.70
2023-08-12T03:22:00.251Z,6.60
2023-08-12T03:27:03.933Z,6.10
2023-08-12T03:32:07.415Z,6.70
2023-08-12T03:37:11.701Z,6.50
2023-08-12T03:42:16.652Z,7.20
2023-08-12T03:47:23.253Z,7.00
2023-08-12T03:57:29.008Z,6.50
2023-08-12T04:02:32.485Z,6.60
2023-08-12T04:07:37.845Z,7.60
2023-08-12T04:12:43.140Z,6.60
2023-08-12T04:17:46.057Z,6.60
2023-08-12T04:22:50.344Z,7.00
2023-08-12T04:27:53.665Z,6.60
2023-08-12T04:32:57.583Z,6.90
2023-08-12T04:38:01.812Z,7.20
2023-08-12T04:43:05.218Z,7.00
2023-08-12T04:48:09.859Z,6.90
2023-08-12T04:53:12.948Z,7.20
2023-08-12T04:58:16.608Z,7.20
2023-08-12T05:03:20.061Z,8.00
2023-08-12T05:08:25.434Z,7.40
2023-08-12T05:13:29.629Z,7.50
2023-08-12T05:18:32.913Z,7.10
2023-08-12T05:23:36.766Z,7.20
2023-08-12T05:28:39.973Z,6.80
2023-08-12T05:33:42.812Z,7.80
2023-08-12T05:38:45.668Z,6.40
2023-08-12T05:43:49.449Z,6.40
2023-08-12T05:48:52.252Z,6.20
2023-08-12T05:53:55.336Z,5.80
2023-08-12T05:58:58.160Z,6.10
2023-08-12T06:04:01.132Z,6.30
2023-08-12T06:09:04.682Z,6.20
2023-08-12T06:14:07.498Z,6.10
2023-08-12T06:19:10.383Z,6.00
2023-08-12T06:24:14.021Z,5.70
2023-08-12T06:29:17.138Z,6.00
2023-08-12T06:34:20.030Z,6.00
2023-08-12T06:39:23.123Z,5.90
2023-08-12T06:44:25.860Z,6.00
2023-08-12T06:49:28.586Z,5.40
2023-08-12T06:54:31.410Z,5.60
2023-08-12T06:59:34.222Z,5.50
2023-08-12T07:04:37.062Z,6.10
2023-08-12T07:09:39.922Z,6.10
2023-08-12T07:14:42.720Z,5.50
2023-08-12T07:19:45.587Z,5.60
2023-08-12T07:24:48.438Z,5.40
2023-08-12T07:29:51.200Z,5.00
2023-08-12T07:34:54.225Z,5.40
2023-08-12T07:39:57.206Z,4.90
2023-08-12T07:45:00.195Z,5.30
2023-08-12T07:50:03.526Z,5.00
2023-08-12T07:55:07.431Z,4.80
2023-08-12T08:00:11.192Z,4.50
2023-08-12T08:05:14.020Z,7.50
2023-08-12T08:10:17.022Z,4.80
2023-08-12T08:15:19.964Z,4.70
2023-08-12T08:20:23.760Z,5.70
2023-08-12T08:25:26.661Z,5.00
2023-08-12T08:30:29.635Z,3.80
2023-08-12T08:35:33.007Z,4.40
2023-08-12T08:40:36.233Z,4.30
2023-08-12T08:45:39.756Z,4.40
2023-08-12T08:50:44.214Z,3.60
2023-08-12T08:55:47.889Z,4.30
2023-08-12T09:00:51.477Z,3.80
2023-08-12T09:05:56.533Z,3.90
2023-08-12T09:11:03.704Z,3.60
2023-08-12T09:16:06.590Z,3.60
2023-08-12T09:21:10.525Z,3.80
2023-08-12T09:26:18.767Z,3.70
2023-08-12T09:31:27.520Z,3.70
2023-08-12T09:36:31.805Z,4.10
2023-08-12T09:41:36.684Z,4.10
2023-08-12T09:46:40.246Z,3.80
2023-08-12T09:51:44.877Z,4.10
2023-08-12T10:01:53.748Z,3.50
2023-08-12T10:06:56.847Z,3.60
2023-08-12T10:12:00.288Z,3.80
2023-08-12T10:17:06.061Z,4.00
2023-08-12T10:22:12.121Z,4.50
2023-08-12T10:27:15.555Z,3.80
2023-08-12T10:32:18.612Z,3.60
2023-08-12T10:37:21.584Z,3.50
2023-08-12T10:42:44.364Z,3.70
2023-08-12T10:48:10.482Z,3.70
2023-08-12T10:53:31.244Z,3.80
2023-08-12T10:58:46.670Z,4.10
2023-08-12T11:03:49.875Z,3.50
2023-08-12T11:08:53.944Z,4.00
2023-08-12T11:14:00.209Z,3.70
2023-08-12T11:19:03.984Z,3.20
2023-08-12T11:24:07.331Z,3.30
2023-08-12T11:29:12.504Z,4.20
2023-08-12T11:34:16.749Z,3.70
2023-08-12T11:39:19.784Z,3.40
2023-08-12T11:44:24.078Z,3.80
2023-08-12T11:49:26.869Z,3.60
2023-08-12T11:54:30.378Z,3.60
2023-08-12T11:59:33.425Z,3.60
2023-08-12T12:04:36.526Z,4.90
2023-08-12T12:09:44.453Z,3.90
2023-08-12T12:14:48.422Z,4.00
2023-08-12T12:19:57.637Z,4.90
2023-08-12T12:25:06.860Z,3.60
2023-08-12T12:30:15.834Z,3.70
2023-08-12T12:35:18.552Z,3.80
2023-08-12T12:40:21.354Z,3.60
2023-08-12T12:45:24.125Z,3.60
2023-08-12T12:50:29.868Z,3.20
2023-08-12T12:55:33.246Z,3.80
2023-08-12T13:00:36.135Z,4.10
2023-08-12T13:05:40.998Z,3.50
2023-08-12T13:10:44.057Z,3.50
2023-08-12T13:15:48.836Z,4.20
2023-08-12T13:20:51.552Z,4.70
2023-08-12T13:25:54.714Z,4.00
2023-08-12T13:30:58.040Z,3.70
2023-08-12T13:36:00.874Z,3.20
2023-08-12T13:41:03.629Z,3.60
2023-08-12T13:46:06.422Z,3.40
2023-08-12T13:51:10.430Z,3.40
2023-08-12T13:56:13.733Z,4.10
2023-08-12T14:01:16.814Z,3.50
2023-08-12T14:06:20.263Z,3.80
2023-08-12T14:11:22.949Z,3.70
2023-08-12T14:16:25.858Z,3.50
2023-08-12T14:21:28.854Z,4.10
2023-08-12T14:26:31.885Z,4.00
2023-08-12T14:31:35.529Z,4.20
2023-08-12T14:36:38.315Z,3.50
2023-08-12T14:41:41.599Z,3.60
2023-08-12T14:46:44.342Z,3.80
2023-08-12T14:51:47.532Z,3.50
2023-08-12T14:56:50.402Z,3.80
2023-08-12T15:01:53.248Z,3.40
2023-08-12T15:06:56.468Z,3.40
2023-08-12T15:11:59.239Z,3.50
2023-08-12T15:17:02.171Z,4.40
2023-08-12T15:22:04.996Z,3.80
2023-08-12T15:27:07.859Z,3.80
2023-08-12T15:32:10.886Z,3.60
2023-08-12T15:37:13.790Z,3.60
2023-08-12T15:42:16.811Z,3.80
2023-08-12T15:47:19.617Z,3.20
2023-08-12T15:52:22.762Z,3.90
2023-08-12T15:57:25.497Z,3.70
2023-08-12T16:02:28.339Z,3.70
2023-08-12T16:07:31.215Z,4.10
2023-08-12T16:12:33.966Z,3.60
2023-08-12T16:17:36.748Z,3.90
2023-08-12T16:22:39.909Z,4.30
2023-08-12T16:27:42.649Z,4.30
2023-08-12T16:32:45.459Z,5.20
2023-08-12T16:37:48.384Z,3.80
2023-08-12T16:42:51.293Z,4.30
2023-08-12T16:47:54.237Z,4.20
2023-08-12T16:52:57.201Z,3.80
2023-08-12T16:57:59.959Z,3.70
2023-08-12T17:03:02.894Z,3.50
2023-08-12T17:08:06.518Z,3.20
2023-08-12T17:13:10.445Z,6.70
2023-08-12T17:18:13.591Z,3.90
2023-08-12T17:23:17.104Z,4.00
2023-08-12T17:28:19.979Z,4.00
2023-08-12T17:33:22.752Z,3.70
2023-08-12T17:38:25.471Z,4.40
2023-08-12T17:43:28.283Z,4.20
2023-08-12T17:48:32.685Z,4.20
2023-08-12T17:53:35.577Z,4.30
2023-08-12T17:58:38.930Z,4.40
2023-08-12T18:03:41.773Z,3.80
2023-08-12T18:08:45.302Z,4.10
2023-08-12T18:13:48.102Z,3.80
2023-08-12T18:18:50.847Z,4.00
2023-08-12T18:23:53.667Z,4.90
2023-08-12T18:28:56.507Z,4.30
2023-08-12T18:33:59.263Z,4.70
2023-08-12T18:39:02.153Z,5.00
2023-08-12T18:44:05.634Z,4.60
2023-08-12T18:49:08.428Z,4.50
2023-08-12T18:54:11.235Z,5.30
2023-08-12T18:59:14.111Z,4.00
2023-08-12T19:04:17.733Z,4.20
2023-08-12T19:09:21.687Z,4.10
2023-08-12T19:14:25.958Z,4.60
2023-08-12T19:19:28.899Z,4.70
2023-08-12T19:24:31.956Z,4.20
2023-08-12T19:29:34.799Z,5.10
2023-08-12T19:34:37.823Z,4.00
2023-08-12T19:39:40.534Z,3.70
2023-08-12T19:44:43.339Z,3.90
2023-08-12T19:49:46.342Z,6.10
2023-08-12T19:54:49.066Z,5.00
2023-08-12T19:59:52.620Z,4.70
2023-08-12T20:04:56.322Z,4.00
2023-08-12T20:09:59.073Z,4.10
2023-08-12T20:15:02.444Z,4.30
2023-08-12T20:20:09.624Z,3.90
2023-08-12T20:25:13.761Z,4.00
2023-08-12T20:30:16.602Z,3.80
2023-08-12T20:35:19.291Z,4.80
2023-08-12T20:40:22.310Z,4.70
2023-08-12T20:45:25.230Z,4.60
2023-08-12T20:50:27.938Z,3.80
2023-08-12T20:55:30.654Z,4.70
2023-08-12T21:00:33.877Z,4.20
2023-08-12T21:05:41.790Z,4.50
2023-08-12T21:10:52.619Z,4.10
2023-08-12T21:15:55.686Z,4.30
2023-08-12T21:20:58.496Z,4.00
2023-08-12T21:26:01.500Z,4.70
2023-08-12T21:31:04.263Z,4.50
2023-08-12T21:36:07.579Z,4.20
2023-08-12T21:41:10.362Z,4.50
2023-08-12T21:46:13.214Z,4.40
2023-08-12T21:51:16.130Z,4.30
2023-08-12T21:56:20.140Z,4.50
2023-08-12T22:01:23.537Z,4.60
2023-08-12T22:06:26.373Z,4.70
2023-08-12T22:11:29.219Z,5.10
2023-08-12T22:16:32.384Z,4.80
2023-08-12T22:21:35.123Z,5.70
2023-08-12T22:26:37.944Z,4.80
2023-08-12T22:31:41.882Z,4.70
2023-08-12T22:36:45.078Z,5.20
2023-08-12T22:41:48.215Z,4.40
2023-08-12T22:46:51.711Z,4.70
2023-08-12T22:51:54.896Z,5.30
2023-08-12T22:56:57.609Z,5.00
2023-08-12T23:02:00.361Z,4.90
2023-08-12T23:07:03.222Z,4.60
2023-08-12T23:12:07.117Z,5.30
2023-08-12T23:17:09.816Z,5.60
2023-08-12T23:22:13.113Z,6.00
2023-08-12T23:27:16.182Z,4.90
2023-08-12T23:32:19.360Z,5.50
2023-08-12T23:37:22.126Z,5.70
2023-08-12T23:42:24.912Z,5.10
2023-08-12T23:47:27.808Z,6.00
2023-08-12T23:52:30.499Z,5.30
2023-08-12T23:57:33.241Z,5.10
